AirNav   TITAN Aviation Fuels
 
 1462 users online  

OI57 Mc Kinney Field Airport
Hamersville, Ohio, USA

GOING TO HAMERSVILLE?


FAA INFORMATION EFFECTIVE 30 DECEMBER 2021

Location

FAA Identifier: OI57
Lat/Long: 38-55-37.2430N 083-59-18.7510W
38-55.620717N 083-59.312517W
38.9270119,-83.9885419
(estimated)
Elevation: 970 ft. / 296 m (estimated)
Variation: 04W (1990)
Time zone: UTC -5 (UTC -4 during Daylight Saving Time)
Zip code: 45130

Airport Operations

Airport use: Private use. Permission required prior to landing
Activation date: 02/1992
Control tower: no
ARTCC: INDIANAPOLIS CENTER
FSS: DAYTON FLIGHT SERVICE STATION
Attendance: UNATNDD
Wind indicator: yes
Segmented circle: no

Airport Communications

WX AWOS-3 at I69 (14 nm NW): 127.275 (513-732-6978)

Nearby radio navigation aids

VOR radial/distance  VOR name  Freq  Var
FLMr046/22.5FALMOUTH VOR/DME117.0004W
MXQr200/31.4MIDWEST VOR/DME112.9004W
CVGr103/33.8CINCINNATI VORTAC117.3004W

 
NDB name  Hdg/Dist  Freq  Var  ID
SPORTYS134/13.924504WPWF .--. .-- ..-.

Airport Services

Runway Information

Runway 9/27

Dimensions: 2200 x 75 ft. / 671 x 23 m
Surface: turf
RUNWAY 9  RUNWAY 27
Traffic pattern: leftright
Displaced threshold: no400 ft.
Obstructions: none20 ft. plines, 20 ft. from runway

Airport Ownership and Management from official FAA records

Ownership: Privately-owned
Owner: STEVE MC KINNEY
1951 ST RT 125
HAMERSVILLE, OH 45130
Phone 937-379-1055
OWNER/MANAGERS CELL 937-483-6212.
Manager: STEVE MC KINNEY
1951 ST RT 125
HAMERSVILLE, OH 45130
Phone 937-379-1634

Airport Operational Statistics

Aircraft based on the field: 11
Single engine airplanes: 8
Helicopters: 2
Ultralights: 1
    

Additional Remarks

FOR CD CTC CINCINNATI APCH AT 859-372-6440

Instrument Procedures

There are no published instrument procedures at OI57.

Some nearby airports with instrument procedures:

KGEO - Brown County Airport (6 nm SE)
I69 - Clermont County Airport (14 nm NW)
KAMT - Alexander Salamon Airport (20 nm E)
KLUK - Cincinnati Municipal Airport/Lunken Field (23 nm NW)
K62 - Gene Snyder Airport (23 nm SW)
 
Loc | Ops | Rwys | IFR | FBO | Links
Com | Nav | Svcs | Stats | Notes
Area around OI57 (Mc Kinney Field Airport)
 
Road maps at: MapQuest Bing Google
 
Aerial photo
No photo
 
Sectional chart

 
Airport distance calculator
Flying to Mc Kinney Field Airport? Find the distance to fly.

From to OI57

Sunrise and sunset
Times for 20-Jan-2022
 Local
(UTC-5)
 Zulu
(UTC)
Morning civil twilight07:2312:23
Sunrise07:5212:52
Sunset17:4222:42
Evening civil twilight18:1123:11

Current date and time
Zulu (UTC)  21-Jan-2022 00:53:25
Local (UTC-5)  20-Jan-2022 19:53:25
 
METAR
KI69 
14nm NW 
210035Z AUTO 07007KT 10SM SCT032 OVC042 M05/M12 A3047 RMK AO2 T10501117
KLUK 
22nm NW 
202353Z 36009KT 10SM OVC050 M04/M14 A3050 RMK AO2 SLP333 T10441139 11011 21044 53018
KK62 
23nm SW 
202015Z AUTO 02009KT 330V030 10SM SCT044 M02/M13 A3038 RMK AO2
KFGX 
26nm SE 
210035Z AUTO 07010KT 10SM CLR M06/M13 A3046 RMK AO2 T10651130
TAF
KLUK 
22nm NW 
201730Z 2018/2118 01013KT P6SM SCT040 FM202200 01009KT P6SM FEW250 FM210500 03007KT P6SM SKC
NOTAMs
Click for the latest NOTAMs
NOTAMs are issued by the DoD/FAA and will open in a separate window not controlled by AirNav.

 

 
 

Would you like to see your business listed on this page?

 If your business provides an interesting product or service to pilots, flight crews, aircraft, or users of the Mc Kinney Field Airport, you should consider listing it here.  To start the listing process, click on the button below
 
Add a business
 

Other Pages about Mc Kinney Field Airport

Update a link
 
Copyright © AirNav, LLC. All rights reserved. Privacy Policy  Contact